createdAt,value
2018-12-17T00:01:04.617Z,11.35
2018-12-17T00:03:33.105Z,10.95
2018-12-17T00:06:01.726Z,12.00
2018-12-17T00:08:32.166Z,13.22
2018-12-17T00:11:00.969Z,11.20
2018-12-17T00:13:29.500Z,11.30
2018-12-17T00:15:58.090Z,12.10
2018-12-17T00:18:26.646Z,9.88
2018-12-17T00:20:55.177Z,12.30
2018-12-17T00:23:23.752Z,13.62
2018-12-17T00:25:52.347Z,10.13
2018-12-17T00:28:20.861Z,14.78
2018-12-17T00:30:49.432Z,12.20
2018-12-17T00:33:17.992Z,12.23
2018-12-17T00:35:46.520Z,10.23
2018-12-17T00:38:15.092Z,12.73
2018-12-17T00:40:43.647Z,13.18
2018-12-17T00:43:12.244Z,9.75
2018-12-17T00:45:40.774Z,10.00
2018-12-17T00:48:09.371Z,11.57
2018-12-17T00:50:38.001Z,11.45
2018-12-17T00:53:06.605Z,10.75
2018-12-17T00:55:35.151Z,12.88
2018-12-17T00:58:04.336Z,10.70
2018-12-17T01:00:32.965Z,8.28
2018-12-17T01:03:01.487Z,11.68
2018-12-17T01:05:30.109Z,10.82
2018-12-17T01:07:58.685Z,11.25
2018-12-17T01:10:27.224Z,10.00
2018-12-17T01:12:55.885Z,10.13
2018-12-17T01:15:24.444Z,10.25
2018-12-17T01:17:52.971Z,11.05
2018-12-17T01:20:21.514Z,10.65
2018-12-17T01:22:50.135Z,8.95
2018-12-17T01:25:18.660Z,11.08
2018-12-17T01:27:47.178Z,8.98
2018-12-17T01:30:15.857Z,9.78
2018-12-17T01:32:44.528Z,10.95
2018-12-17T01:35:13.134Z,10.32
2018-12-17T01:37:41.723Z,11.48
2018-12-17T01:40:10.425Z,9.60
2018-12-17T01:42:38.962Z,10.60
2018-12-17T01:45:07.774Z,10.38
2018-12-17T01:47:36.598Z,10.38
2018-12-17T01:50:05.331Z,10.82
2018-12-17T01:52:33.912Z,10.03
2018-12-17T01:55:02.505Z,9.38
2018-12-17T01:57:31.087Z,11.57
2018-12-17T01:59:59.614Z,9.58
2018-12-17T02:02:28.161Z,11.63
2018-12-17T02:04:56.748Z,10.98
2018-12-17T02:07:25.254Z,11.43
2018-12-17T02:09:53.744Z,12.13
2018-12-17T02:12:22.343Z,10.55
2018-12-17T02:14:50.863Z,9.95
2018-12-17T02:17:19.420Z,12.00
2018-12-17T02:19:47.983Z,9.33
2018-12-17T02:22:16.507Z,11.43
2018-12-17T02:24:45.059Z,11.57
2018-12-17T02:27:13.766Z,9.20
2018-12-17T02:29:42.730Z,10.05
2018-12-17T02:32:11.323Z,11.93
2018-12-17T02:34:39.915Z,10.23
2018-12-17T02:37:08.420Z,10.82
2018-12-17T02:39:36.927Z,7.70
2018-12-17T02:42:05.542Z,9.95
2018-12-17T02:44:34.178Z,8.95
2018-12-17T02:47:02.791Z,10.63
2018-12-17T02:49:31.595Z,9.13
2018-12-17T02:52:00.124Z,9.53
2018-12-17T02:54:28.774Z,9.10
2018-12-17T02:56:57.328Z,10.35
2018-12-17T02:59:25.928Z,10.70
2018-12-17T03:01:54.524Z,10.80
2018-12-17T03:04:23.105Z,9.90
2018-12-17T03:06:51.743Z,9.80
2018-12-17T03:09:20.240Z,9.18
2018-12-17T03:11:48.811Z,10.35
2018-12-17T03:14:17.342Z,8.28
2018-12-17T03:16:45.869Z,9.48
2018-12-17T03:19:14.542Z,10.35
2018-12-17T03:21:43.149Z,10.13
2018-12-17T03:24:11.688Z,10.88
2018-12-17T03:26:40.202Z,9.53
2018-12-17T03:29:08.795Z,13.53
2018-12-17T03:31:37.760Z,8.48
2018-12-17T03:34:06.327Z,8.98
2018-12-17T03:36:34.834Z,8.45
2018-12-17T03:39:04.324Z,10.48
2018-12-17T03:41:32.872Z,8.40
2018-12-17T03:44:01.412Z,9.75
2018-12-17T03:46:29.946Z,11.48
2018-12-17T03:48:58.487Z,10.65
2018-12-17T03:51:27.012Z,10.35
2018-12-17T03:53:55.566Z,11.60
2018-12-17T03:56:24.132Z,12.30
2018-12-17T03:58:59.282Z,10.03
2018-12-17T04:01:23.338Z,11.43
2018-12-17T04:03:51.919Z,11.97
2018-12-17T04:06:20.479Z,11.48
2018-12-17T04:08:49.030Z,11.78
2018-12-17T04:11:17.690Z,10.95
2018-12-17T04:13:46.217Z,9.98
2018-12-17T04:16:14.771Z,10.10
2018-12-17T04:18:43.253Z,11.18
2018-12-17T04:21:11.857Z,11.73
2018-12-17T04:23:40.439Z,9.48
2018-12-17T04:26:09.004Z,9.28
2018-12-17T04:28:37.561Z,11.65
2018-12-17T04:31:06.142Z,10.25
2018-12-17T04:33:34.659Z,10.40
2018-12-17T04:36:03.218Z,11.22
2018-12-17T04:38:31.789Z,10.82
2018-12-17T04:41:00.485Z,9.20
2018-12-17T04:43:29.065Z,10.68
2018-12-17T04:45:57.615Z,10.82
2018-12-17T04:48:26.125Z,10.90
2018-12-17T04:50:54.632Z,13.83
2018-12-17T04:53:23.119Z,12.95
2018-12-17T04:55:51.680Z,11.00
2018-12-17T04:58:20.287Z,12.28
2018-12-17T05:00:48.806Z,11.95
2018-12-17T05:03:17.481Z,11.08
2018-12-17T05:05:46.037Z,11.53
2018-12-17T05:08:14.610Z,13.60
2018-12-17T05:10:43.287Z,12.93
2018-12-17T05:13:11.940Z,12.70
2018-12-17T05:15:40.527Z,13.83
2018-12-17T05:18:09.160Z,12.35
2018-12-17T05:20:37.714Z,13.95
2018-12-17T05:23:06.320Z,11.57
2018-12-17T05:25:34.848Z,14.07
2018-12-17T05:28:03.546Z,14.60
2018-12-17T05:30:32.069Z,12.25
2018-12-17T05:33:01.528Z,15.32
2018-12-17T05:35:30.052Z,11.88
2018-12-17T05:37:58.952Z,12.73
2018-12-17T05:40:27.551Z,14.20
2018-12-17T05:42:56.166Z,13.65
2018-12-17T05:45:24.726Z,14.90
2018-12-17T05:47:53.271Z,15.20
2018-12-17T05:50:21.915Z,12.05
2018-12-17T05:52:50.480Z,12.43
2018-12-17T05:55:19.074Z,12.70
2018-12-17T05:57:47.643Z,12.68
2018-12-17T06:00:16.161Z,14.30
2018-12-17T06:02:44.816Z,13.80
2018-12-17T06:05:13.462Z,11.48
2018-12-17T06:07:41.973Z,13.32
2018-12-17T06:10:10.570Z,12.82
2018-12-17T06:13:24.528Z,14.07
2018-12-17T06:15:53.010Z,11.78
2018-12-17T06:18:23.988Z,13.08
2018-12-17T06:20:53.769Z,11.35
2018-12-17T06:23:22.279Z,13.40
2018-12-17T06:25:52.894Z,14.25
2018-12-17T06:28:21.446Z,11.43
2018-12-17T06:30:50.049Z,12.88
2018-12-17T06:33:18.636Z,12.05
2018-12-17T06:38:22.111Z,13.50
2018-12-17T06:40:50.680Z,17.15
2018-12-17T06:43:19.255Z,11.90
2018-12-17T06:45:47.890Z,12.07
2018-12-17T06:48:17.235Z,13.68
2018-12-17T06:50:46.153Z,14.58
2018-12-17T06:53:14.808Z,13.60
2018-12-17T06:55:43.382Z,11.25
2018-12-17T06:58:12.343Z,12.20
2018-12-17T07:00:40.947Z,12.15
2018-12-17T07:03:09.492Z,11.63
2018-12-17T07:05:38.152Z,16.87
2018-12-17T07:08:06.701Z,13.18
2018-12-17T07:10:35.267Z,15.93
2018-12-17T07:13:03.862Z,18.95
2018-12-17T07:15:32.398Z,25.85
2018-12-17T07:18:01.021Z,23.25
2018-12-17T07:20:29.594Z,22.62
2018-12-17T07:22:58.109Z,17.42
2018-12-17T07:25:26.736Z,21.15
2018-12-17T07:27:55.319Z,26.45
2018-12-17T07:30:23.990Z,35.85
2018-12-17T07:32:52.655Z,18.25
2018-12-17T07:35:22.123Z,20.62
2018-12-17T07:37:50.696Z,19.12
2018-12-17T07:40:19.264Z,19.48
2018-12-17T07:42:47.761Z,21.20
2018-12-17T07:45:16.322Z,25.05
2018-12-17T07:47:44.853Z,20.85
2018-12-17T07:50:13.484Z,16.25
2018-12-17T07:52:41.993Z,16.02
2018-12-17T07:55:10.705Z,16.57
2018-12-17T07:57:39.290Z,16.15
2018-12-17T08:00:15.845Z,18.77
2018-12-17T08:02:44.484Z,16.05
2018-12-17T08:05:13.150Z,17.75
2018-12-17T08:07:41.705Z,17.95
2018-12-17T08:10:10.379Z,13.65
2018-12-17T08:12:38.924Z,14.53
2018-12-17T08:15:07.634Z,17.12
2018-12-17T08:17:36.499Z,14.65
2018-12-17T08:20:05.607Z,16.40
2018-12-17T08:22:34.465Z,17.00
2018-12-17T08:25:03.219Z,16.95
2018-12-17T08:27:31.891Z,20.50
2018-12-17T08:30:03.942Z,25.97
2018-12-17T08:32:31.033Z,24.30
2018-12-17T08:34:59.612Z,23.30
2018-12-17T08:37:28.211Z,26.50
2018-12-17T08:39:56.740Z,29.40
2018-12-17T08:42:25.328Z,25.10
2018-12-17T08:44:53.806Z,25.63
2018-12-17T08:47:28.978Z,24.97
2018-12-17T08:49:57.490Z,25.07
2018-12-17T08:52:26.164Z,24.77
2018-12-17T08:54:54.965Z,21.87
2018-12-17T08:57:23.518Z,22.93
2018-12-17T08:59:52.096Z,23.27
2018-12-17T09:02:20.656Z,23.27
2018-12-17T09:04:49.229Z,25.53
2018-12-17T09:07:17.781Z,23.07
2018-12-17T09:09:46.361Z,29.60
2018-12-17T09:12:14.960Z,27.30
2018-12-17T09:14:43.455Z,27.07
2018-12-17T09:17:11.982Z,29.60
2018-12-17T09:19:40.766Z,31.27
2018-12-17T09:22:09.412Z,28.07
2018-12-17T09:24:38.054Z,26.73
2018-12-17T09:27:06.598Z,27.47
2018-12-17T09:29:35.219Z,27.03
2018-12-17T09:32:03.844Z,28.40
2018-12-17T09:34:32.419Z,27.20
2018-12-17T09:37:01.055Z,24.93
2018-12-17T09:39:29.635Z,29.10
2018-12-17T09:41:58.178Z,28.83
2018-12-17T09:44:26.817Z,27.97
2018-12-17T09:46:55.430Z,31.80
2018-12-17T09:49:24.011Z,35.03
2018-12-17T09:51:52.664Z,27.97
2018-12-17T09:54:21.187Z,33.83
2018-12-17T09:56:49.756Z,31.60
2018-12-17T09:59:18.581Z,34.27
2018-12-17T10:01:49.239Z,30.30
2018-12-17T10:04:17.766Z,31.47
2018-12-17T10:06:46.343Z,31.10
2018-12-17T10:09:14.970Z,29.67
2018-12-17T10:11:43.490Z,30.43
2018-12-17T10:14:12.011Z,40.43
2018-12-17T10:16:40.652Z,32.80
2018-12-17T10:19:09.219Z,33.27
2018-12-17T10:21:37.774Z,36.07
2018-12-17T10:24:06.561Z,35.63
2018-12-17T10:26:35.528Z,33.33
2018-12-17T10:29:04.177Z,37.17
2018-12-17T10:31:32.728Z,33.30
2018-12-17T10:34:01.306Z,32.63
2018-12-17T10:36:29.898Z,30.47
2018-12-17T10:38:58.417Z,28.63
2018-12-17T10:41:27.013Z,23.47
2018-12-17T10:43:55.527Z,24.00
2018-12-17T10:46:24.085Z,19.10
2018-12-17T10:48:52.589Z,21.00
2018-12-17T10:51:21.118Z,17.87
2018-12-17T10:53:49.669Z,19.30
2018-12-17T10:56:18.246Z,18.10
2018-12-17T10:58:46.774Z,20.73
2018-12-17T11:01:20.435Z,22.53
2018-12-17T11:03:55.809Z,26.03
2018-12-17T11:06:24.304Z,28.37
2018-12-17T11:08:52.987Z,24.47
2018-12-17T11:11:21.553Z,19.13
2018-12-17T11:13:50.071Z,18.53
2018-12-17T11:16:18.711Z,22.80
2018-12-17T11:18:47.320Z,26.27
2018-12-17T11:21:16.251Z,20.03
2018-12-17T11:23:44.900Z,23.10
2018-12-17T11:26:13.490Z,21.83
2018-12-17T11:28:42.108Z,24.07
2018-12-17T11:31:10.604Z,21.00
2018-12-17T11:33:39.156Z,21.63
2018-12-17T11:36:07.736Z,24.27
2018-12-17T11:38:36.456Z,26.27
2018-12-17T11:41:05.050Z,30.53
2018-12-17T11:43:33.623Z,24.97
2018-12-17T11:46:06.299Z,27.80
2018-12-17T11:48:35.150Z,22.87
2018-12-17T11:51:03.696Z,29.33
2018-12-17T11:53:32.234Z,32.70
2018-12-17T11:56:00.810Z,30.57
2018-12-17T11:58:29.479Z,30.93
2018-12-17T12:01:01.826Z,28.70
2018-12-17T12:03:31.953Z,30.37
2018-12-17T12:06:00.547Z,29.70
2018-12-17T12:08:29.182Z,31.73
2018-12-17T12:10:57.703Z,28.37
2018-12-17T12:13:26.311Z,29.27
2018-12-17T12:15:54.803Z,25.67
2018-12-17T12:18:23.347Z,28.73
2018-12-17T12:20:51.938Z,25.97
2018-12-17T12:23:20.506Z,32.33
2018-12-17T12:25:49.113Z,29.23
2018-12-17T12:28:17.646Z,29.83
2018-12-17T12:30:46.275Z,27.23
2018-12-17T12:33:14.853Z,24.37
2018-12-17T12:35:43.402Z,27.00
2018-12-17T12:38:11.966Z,25.60
2018-12-17T12:40:40.555Z,27.87
2018-12-17T12:43:09.079Z,24.13
2018-12-17T12:45:38.611Z,24.13
2018-12-17T12:48:07.151Z,27.43
2018-12-17T12:50:35.737Z,27.63
2018-12-17T12:53:04.291Z,22.67
2018-12-17T12:55:32.893Z,24.27
2018-12-17T12:58:03.843Z,27.03
2018-12-17T13:00:32.128Z,28.30
2018-12-17T13:03:00.784Z,25.40
2018-12-17T13:05:29.476Z,24.13
2018-12-17T13:07:58.029Z,28.07
2018-12-17T13:10:26.678Z,27.80
2018-12-17T13:12:55.269Z,26.53
2018-12-17T13:15:23.876Z,27.77
2018-12-17T13:17:52.435Z,31.97
2018-12-17T13:20:20.982Z,31.37
2018-12-17T13:22:49.572Z,36.27
2018-12-17T13:25:23.081Z,34.20
2018-12-17T13:27:51.655Z,38.77
2018-12-17T13:30:20.401Z,42.23
2018-12-17T13:32:48.955Z,46.83
2018-12-17T13:35:17.549Z,48.97
2018-12-17T13:37:46.130Z,44.57
2018-12-17T13:40:14.740Z,43.70
2018-12-17T13:42:43.346Z,41.20
2018-12-17T13:45:12.553Z,35.33
2018-12-17T13:47:41.100Z,31.90
2018-12-17T13:50:14.924Z,33.20
2018-12-17T13:52:47.007Z,32.33
2018-12-17T13:55:15.867Z,32.00
2018-12-17T13:57:44.459Z,26.00
2018-12-17T14:00:13.517Z,24.73
2018-12-17T14:02:42.063Z,22.13
2018-12-17T14:05:10.684Z,27.83
2018-12-17T14:07:39.246Z,28.50
2018-12-17T14:10:15.270Z,31.03
2018-12-17T14:12:43.850Z,37.27
2018-12-17T14:15:12.427Z,31.07
2018-12-17T14:17:45.101Z,30.50
2018-12-17T14:20:18.838Z,25.20
2018-12-17T14:22:47.428Z,27.17
2018-12-17T14:25:16.014Z,22.43
2018-12-17T14:27:44.602Z,24.40
2018-12-17T14:30:13.192Z,25.10
2018-12-17T14:32:41.820Z,23.83
2018-12-17T14:35:10.403Z,27.70
2018-12-17T14:37:44.320Z,21.83
2018-12-17T14:40:12.997Z,26.20
2018-12-17T14:42:41.552Z,25.80
2018-12-17T14:45:10.423Z,25.77
2018-12-17T14:47:39.137Z,23.77
2018-12-17T14:50:07.832Z,27.32
2018-12-17T14:52:36.422Z,24.35
2018-12-17T14:55:05.869Z,25.93
2018-12-17T14:57:34.427Z,28.00
2018-12-17T15:00:02.951Z,26.73
2018-12-17T15:02:31.474Z,27.00
2018-12-17T15:05:00.117Z,28.57
2018-12-17T15:07:29.814Z,30.60
2018-12-17T15:09:58.662Z,31.85
2018-12-17T15:12:27.344Z,33.33
2018-12-17T15:14:56.022Z,37.03
2018-12-17T15:17:24.656Z,40.50
2018-12-17T15:19:53.382Z,37.97
2018-12-17T15:22:21.985Z,37.73
2018-12-17T15:24:50.581Z,38.40
2018-12-17T15:27:19.184Z,45.05
2018-12-17T15:29:47.864Z,38.97
2018-12-17T15:32:16.429Z,40.88
2018-12-17T15:34:45.066Z,41.47
2018-12-17T15:37:13.676Z,36.98
2018-12-17T15:39:42.203Z,42.08
2018-12-17T15:42:10.794Z,44.15
2018-12-17T15:44:39.392Z,37.25
2018-12-17T15:47:08.096Z,35.73
2018-12-17T15:49:36.704Z,39.60
2018-12-17T15:52:05.297Z,38.23
2018-12-17T15:54:33.915Z,41.43
2018-12-17T15:57:02.570Z,45.47
2018-12-17T15:59:31.368Z,46.30
2018-12-17T16:06:51.288Z,49.87
2018-12-17T16:09:19.812Z,45.00
2018-12-17T16:11:48.528Z,49.80
2018-12-17T16:14:18.223Z,48.40
2018-12-17T16:16:46.807Z,40.47
2018-12-17T16:19:15.399Z,38.00
2018-12-17T16:21:44.933Z,38.53
2018-12-17T16:24:13.508Z,37.17
2018-12-17T16:26:42.129Z,39.00
2018-12-17T16:29:10.727Z,37.65
2018-12-17T16:31:39.372Z,34.15
2018-12-17T16:34:07.974Z,32.57
2018-12-17T16:36:36.744Z,42.17
2018-12-17T16:39:07.475Z,62.70
2018-12-17T16:41:36.073Z,33.88
2018-12-17T16:44:04.654Z,46.80
2018-12-17T16:46:33.300Z,58.28
2018-12-17T16:49:02.030Z,34.08
2018-12-17T16:51:30.671Z,32.95
2018-12-17T16:53:59.221Z,32.45
2018-12-17T16:56:27.806Z,33.35
2018-12-17T16:58:56.373Z,41.00
2018-12-17T17:01:25.061Z,33.73
2018-12-17T17:03:53.642Z,36.05
2018-12-17T17:06:22.232Z,39.53
2018-12-17T17:08:50.821Z,32.40
2018-12-17T17:11:19.460Z,28.62
2018-12-17T17:13:48.313Z,41.48
2018-12-17T17:16:16.967Z,32.00
2018-12-17T17:18:45.592Z,27.77
2018-12-17T17:21:14.150Z,28.47
2018-12-17T17:23:42.728Z,31.27
2018-12-17T17:26:11.331Z,29.80
2018-12-17T17:28:39.898Z,27.05
2018-12-17T17:31:08.429Z,21.73
2018-12-17T17:33:37.019Z,22.37
2018-12-17T17:36:05.647Z,23.70
2018-12-17T17:38:34.195Z,23.12
2018-12-17T17:41:03.037Z,23.67
2018-12-17T17:43:31.579Z,27.80
2018-12-17T17:46:00.122Z,22.48
2018-12-17T17:48:28.686Z,19.40
2018-12-17T17:50:57.328Z,21.20
2018-12-17T17:53:26.034Z,23.07
2018-12-17T17:55:54.652Z,24.07
2018-12-17T17:58:23.220Z,36.23
2018-12-17T18:00:51.953Z,30.20
2018-12-17T18:03:20.703Z,40.65
2018-12-17T18:05:49.277Z,49.40
2018-12-17T18:08:17.862Z,54.70
2018-12-17T18:10:46.770Z,23.00
2018-12-17T18:13:15.324Z,43.58
2018-12-17T18:15:44.078Z,21.45
2018-12-17T18:18:12.637Z,22.87
2018-12-17T18:20:41.270Z,18.87
2018-12-17T18:23:09.776Z,17.50
2018-12-17T18:25:38.369Z,19.62
2018-12-17T18:28:07.314Z,24.98
2018-12-17T18:30:36.388Z,20.48
2018-12-17T18:33:04.996Z,19.55
2018-12-17T18:35:34.167Z,18.92
2018-12-17T18:38:02.722Z,19.05
2018-12-17T18:40:31.383Z,18.12
2018-12-17T18:43:00.196Z,19.62
2018-12-17T18:45:28.772Z,18.67
2018-12-17T18:47:57.379Z,25.45
2018-12-17T18:50:26.042Z,24.40
2018-12-17T18:52:54.600Z,22.77
2018-12-17T18:55:23.171Z,25.80
2018-12-17T18:57:52.100Z,21.50
2018-12-17T19:00:20.797Z,21.85
2018-12-17T19:02:49.487Z,21.02
2018-12-17T19:05:18.578Z,20.02
2018-12-17T19:07:47.143Z,18.60
2018-12-17T19:10:15.724Z,20.05
2018-12-17T19:12:44.276Z,21.30
2018-12-17T19:15:13.084Z,22.22
2018-12-17T19:17:42.657Z,26.45
2018-12-17T19:20:11.313Z,23.35
2018-12-17T19:22:40.821Z,20.85
2018-12-17T19:25:09.382Z,24.87
2018-12-17T19:27:38.012Z,23.00
2018-12-17T19:30:14.498Z,21.00
2018-12-17T19:32:43.134Z,19.85
2018-12-17T19:35:11.752Z,26.68
2018-12-17T19:37:40.318Z,20.72
2018-12-17T19:40:09.244Z,19.98
2018-12-17T19:42:37.861Z,20.82
2018-12-17T19:45:06.650Z,21.70
2018-12-17T19:47:35.287Z,22.15
2018-12-17T19:50:04.381Z,21.07
2018-12-17T19:52:32.950Z,23.42
2018-12-17T19:55:01.540Z,22.32
2018-12-17T19:57:30.163Z,20.85
2018-12-17T19:59:58.716Z,24.27
2018-12-17T20:02:27.298Z,21.45
2018-12-17T20:04:55.896Z,20.88
2018-12-17T20:07:24.457Z,24.55
2018-12-17T20:09:53.085Z,22.50
2018-12-17T20:12:21.673Z,22.40
2018-12-17T20:14:50.387Z,25.37
2018-12-17T20:17:18.976Z,22.32
2018-12-17T20:19:47.566Z,22.02
2018-12-17T20:22:16.409Z,21.27
2018-12-17T20:24:45.351Z,22.05
2018-12-17T20:27:13.995Z,21.35
2018-12-17T20:29:42.651Z,22.35
2018-12-17T20:32:11.310Z,21.97
2018-12-17T20:34:39.998Z,22.93
2018-12-17T20:37:08.657Z,22.52
2018-12-17T20:39:37.298Z,18.67
2018-12-17T20:42:05.967Z,24.43
2018-12-17T20:44:34.623Z,23.80
2018-12-17T20:47:03.368Z,22.05
2018-12-17T20:49:31.985Z,25.48
2018-12-17T20:52:00.676Z,22.48
2018-12-17T20:54:29.299Z,25.68
2018-12-17T20:56:58.078Z,20.02
2018-12-17T20:59:26.717Z,23.73
2018-12-17T21:01:55.374Z,24.32
2018-12-17T21:04:24.003Z,19.95
2018-12-17T21:06:52.583Z,21.42
2018-12-17T21:09:21.312Z,21.90
2018-12-17T21:11:49.993Z,20.50
2018-12-17T21:14:23.736Z,20.40
2018-12-17T21:16:52.290Z,22.50
2018-12-17T21:19:21.114Z,21.75
2018-12-17T21:21:51.459Z,23.35
2018-12-17T21:24:21.277Z,22.15
2018-12-17T21:26:49.830Z,18.05
2018-12-17T21:29:18.452Z,22.70
2018-12-17T21:31:47.039Z,20.55
2018-12-17T21:34:16.165Z,20.45
2018-12-17T21:36:44.840Z,23.52
2018-12-17T21:39:13.604Z,26.00
2018-12-17T21:41:42.299Z,23.22
2018-12-17T21:44:10.971Z,22.13
2018-12-17T21:46:39.572Z,26.30
2018-12-17T21:49:08.240Z,28.07
2018-12-17T21:51:36.828Z,23.10
2018-12-17T21:54:05.798Z,23.65
2018-12-17T21:56:34.392Z,26.45
2018-12-17T21:59:03.096Z,24.95
2018-12-17T22:01:32.000Z,24.02
2018-12-17T22:04:00.544Z,26.23
2018-12-17T22:06:29.180Z,23.27
2018-12-17T22:08:57.741Z,24.30
2018-12-17T22:11:26.394Z,22.98
2018-12-17T22:13:55.930Z,21.12
2018-12-17T22:16:24.491Z,21.93
2018-12-17T22:18:53.063Z,20.50
2018-12-17T22:21:21.667Z,22.77
2018-12-17T22:23:50.319Z,21.95
2018-12-17T22:26:18.910Z,22.48
2018-12-17T22:28:47.480Z,22.40
2018-12-17T22:31:16.147Z,22.58
2018-12-17T22:33:44.665Z,22.25
2018-12-17T22:36:14.355Z,18.98
2018-12-17T22:38:42.932Z,21.93
2018-12-17T22:41:11.891Z,24.92
2018-12-17T22:43:40.483Z,25.40
2018-12-17T22:46:09.067Z,22.70
2018-12-17T22:48:37.612Z,24.18
2018-12-17T22:51:06.191Z,22.52
2018-12-17T22:53:34.729Z,22.82
2018-12-17T22:56:03.339Z,26.73
2018-12-17T22:58:31.913Z,22.30
2018-12-17T23:01:00.508Z,25.95
2018-12-17T23:03:29.183Z,25.30
2018-12-17T23:05:58.002Z,27.62
2018-12-17T23:08:26.887Z,25.15
2018-12-17T23:11:06.607Z,25.17
2018-12-17T23:13:46.312Z,26.82
2018-12-17T23:16:26.138Z,22.32
2018-12-17T23:18:53.634Z,22.87
2018-12-17T23:21:22.804Z,26.12
2018-12-17T23:23:51.539Z,25.25
2018-12-17T23:26:20.147Z,27.75
2018-12-17T23:28:48.757Z,28.73
2018-12-17T23:31:17.410Z,21.68
2018-12-17T23:33:46.119Z,20.92
2018-12-17T23:36:14.730Z,26.87
2018-12-17T23:38:43.437Z,23.12
2018-12-17T23:41:12.070Z,23.75
2018-12-17T23:43:40.722Z,22.90
2018-12-17T23:46:09.284Z,21.65
2018-12-17T23:48:37.935Z,20.05
2018-12-17T23:51:06.519Z,20.60
2018-12-17T23:53:35.125Z,24.30
2018-12-17T23:56:03.711Z,25.05
2018-12-17T23:58:32.292Z,21.48
